createdAt,value
2019-01-27T00:00:45.705Z,-1.38
2019-01-27T00:05:52.995Z,-1.60
2019-01-27T00:10:58.746Z,-1.48
2019-01-27T00:16:06.605Z,-1.56
2019-01-27T00:21:12.502Z,-1.64
2019-01-27T00:26:18.209Z,-1.64
2019-01-27T00:31:24.427Z,-1.55
2019-01-27T00:36:30.511Z,-1.60
2019-01-27T00:41:36.443Z,-1.57
2019-01-27T00:46:42.518Z,-1.56
2019-01-27T00:51:48.507Z,-1.33
2019-01-27T00:56:55.316Z,-1.42
2019-01-27T01:02:01.307Z,-1.59
2019-01-27T01:07:07.606Z,-1.62
2019-01-27T01:12:13.630Z,-1.52
2019-01-27T01:17:19.334Z,-1.55
2019-01-27T01:22:25.359Z,-1.47
2019-01-27T01:27:31.256Z,-1.54
2019-01-27T01:32:36.954Z,-1.59
2019-01-27T01:37:43.029Z,-1.67
2019-01-27T01:42:49.228Z,-1.73
2019-01-27T01:47:55.273Z,-1.62
2019-01-27T01:53:00.952Z,-1.58
2019-01-27T01:58:06.778Z,-1.67
2019-01-27T02:03:12.586Z,-1.64
2019-01-27T02:08:18.280Z,-1.64
2019-01-27T02:13:26.042Z,-1.66
2019-01-27T02:18:32.039Z,-1.68
2019-01-27T02:23:38.082Z,-1.55
2019-01-27T02:28:43.885Z,-1.67
2019-01-27T02:33:49.598Z,-1.63
2019-01-27T02:38:55.615Z,-1.79
2019-01-27T02:44:01.653Z,-1.59
2019-01-27T02:49:07.684Z,-1.68
2019-01-27T02:54:13.570Z,-1.57
2019-01-27T02:59:19.329Z,-1.64
2019-01-27T03:04:25.164Z,-1.57
2019-01-27T03:09:31.422Z,-1.42
2019-01-27T03:14:37.212Z,-1.48
2019-01-27T03:19:42.906Z,-1.50
2019-01-27T03:24:48.668Z,-1.48
2019-01-27T03:29:54.357Z,-1.35
2019-01-27T03:35:00.408Z,-1.50
2019-01-27T03:40:14.570Z,-1.65
2019-01-27T03:45:22.351Z,-1.41
2019-01-27T03:50:28.467Z,-1.48
2019-01-27T03:55:34.479Z,-1.37
2019-01-27T04:00:40.391Z,-1.45
2019-01-27T04:05:46.165Z,-1.45
2019-01-27T04:10:51.986Z,-1.57
2019-01-27T04:15:58.015Z,-1.58
2019-01-27T04:21:03.943Z,-1.62
2019-01-27T04:26:09.897Z,-1.42
2019-01-27T04:31:15.950Z,-1.25
2019-01-27T04:36:21.851Z,-1.48
2019-01-27T04:41:27.955Z,-1.37
2019-01-27T04:46:33.721Z,-1.48
2019-01-27T04:51:39.590Z,-1.37
2019-01-27T04:56:45.322Z,-1.51
2019-01-27T05:01:50.998Z,-1.48
2019-01-27T05:06:56.949Z,-1.37
2019-01-27T05:12:02.707Z,-1.46
2019-01-27T05:17:08.439Z,-1.34
2019-01-27T05:22:14.121Z,-1.40
2019-01-27T05:27:19.965Z,-1.43
2019-01-27T05:32:25.821Z,-1.46
2019-01-27T05:37:31.546Z,-1.47
2019-01-27T05:42:37.400Z,-1.58
2019-01-27T05:47:43.123Z,-1.63
2019-01-27T05:52:49.156Z,-1.55
2019-01-27T05:57:55.373Z,-1.36
2019-01-27T06:03:01.608Z,-1.40
2019-01-27T06:08:07.525Z,-1.42
2019-01-27T06:13:13.250Z,-1.45
2019-01-27T06:18:19.234Z,-1.42
2019-01-27T06:23:25.092Z,-1.34
2019-01-27T06:28:31.090Z,-1.27
2019-01-27T06:33:38.588Z,-1.18
2019-01-27T06:38:44.307Z,-1.23
2019-01-27T06:43:50.203Z,-1.18
2019-01-27T06:48:56.309Z,-1.32
2019-01-27T06:54:02.150Z,-1.23
2019-01-27T06:59:09.522Z,-1.35
2019-01-27T07:04:19.742Z,-1.19
2019-01-27T07:09:29.902Z,-1.22
2019-01-27T07:14:53.231Z,-1.14
2019-01-27T07:20:03.294Z,-1.07
2019-01-27T07:25:27.089Z,-1.17
2019-01-27T07:30:34.654Z,-1.16
2019-01-27T07:35:42.054Z,-1.09
2019-01-27T07:40:49.729Z,-1.25
2019-01-27T07:45:57.458Z,-1.09
2019-01-27T07:51:06.207Z,-1.02
2019-01-27T07:56:13.876Z,-1.03
2019-01-27T08:01:23.904Z,-1.08
2019-01-27T08:06:32.287Z,-0.96
2019-01-27T08:11:49.078Z,-1.05
2019-01-27T08:17:05.489Z,-0.98
2019-01-27T08:22:24.786Z,-1.05
2019-01-27T08:27:37.998Z,-0.84
2019-01-27T08:32:48.790Z,-0.80
2019-01-27T08:38:02.341Z,-0.50
2019-01-27T08:43:26.054Z,-0.66
2019-01-27T08:48:31.953Z,-0.55
2019-01-27T08:53:37.766Z,-0.55
2019-01-27T08:58:43.836Z,-0.61
2019-01-27T09:03:51.441Z,-0.55
2019-01-27T09:09:10.997Z,-0.62
2019-01-27T09:14:21.126Z,-0.58
2019-01-27T09:19:37.484Z,-0.37
2019-01-27T09:25:00.987Z,-0.66
2019-01-27T09:30:11.629Z,-0.65
2019-01-27T09:35:19.010Z,-0.41
2019-01-27T09:40:35.403Z,-0.33
2019-01-27T09:46:05.131Z,-0.28
2019-01-27T09:51:04.235Z,-0.20
2019-01-27T09:56:11.921Z,-0.29
2019-01-27T10:01:19.577Z,-0.10
2019-01-27T10:06:26.942Z,-0.20
2019-01-27T10:11:37.145Z,-0.06
2019-01-27T10:16:47.315Z,-0.05
2019-01-27T10:21:57.587Z,-0.07
2019-01-27T10:27:14.215Z,0.00
2019-01-27T10:32:30.860Z,0.05
2019-01-27T10:37:44.350Z,0.07
2019-01-27T10:43:00.853Z,0.14
2019-01-27T10:48:14.436Z,0.32
2019-01-27T10:53:25.566Z,0.08
2019-01-27T10:58:35.924Z,0.33
2019-01-27T11:03:43.448Z,0.47
2019-01-27T11:08:53.643Z,0.25
2019-01-27T11:14:00.972Z,0.41
2019-01-27T11:19:20.035Z,0.24
2019-01-27T11:24:27.412Z,0.45
2019-01-27T11:29:34.802Z,0.36
2019-01-27T11:34:42.196Z,0.39
2019-01-27T11:40:06.328Z,0.46
2019-01-27T11:45:26.157Z,0.53
2019-01-27T11:50:33.488Z,0.53
2019-01-27T11:55:39.278Z,0.46
2019-01-27T12:00:46.641Z,0.43
2019-01-27T12:05:52.387Z,0.56
2019-01-27T12:10:58.090Z,0.42
2019-01-27T12:16:04.936Z,0.47
2019-01-27T12:21:10.777Z,0.37
2019-01-27T12:26:16.522Z,0.48
2019-01-27T12:31:22.303Z,0.34
2019-01-27T12:36:28.285Z,0.30
2019-01-27T12:41:34.217Z,0.27
2019-01-27T12:46:40.199Z,0.41
2019-01-27T12:51:46.154Z,0.64
2019-01-27T12:56:52.338Z,0.67
2019-01-27T13:01:58.178Z,0.68
2019-01-27T13:07:04.926Z,0.75
2019-01-27T13:12:10.731Z,0.68
2019-01-27T13:17:16.453Z,0.47
2019-01-27T13:22:22.112Z,0.56
2019-01-27T13:27:28.148Z,0.65
2019-01-27T13:32:34.256Z,0.47
2019-01-27T13:37:40.547Z,0.53
2019-01-27T13:42:46.524Z,0.49
2019-01-27T13:47:52.302Z,0.54
2019-01-27T13:52:58.043Z,0.33
2019-01-27T13:58:04.244Z,0.29
2019-01-27T14:03:10.149Z,0.31
2019-01-27T14:08:16.199Z,0.34
2019-01-27T14:13:22.108Z,0.17
2019-01-27T14:18:28.056Z,0.36
2019-01-27T14:23:33.936Z,0.35
2019-01-27T14:28:39.620Z,0.23
2019-01-27T14:33:45.670Z,0.11
2019-01-27T14:38:51.634Z,0.06
2019-01-27T14:43:57.602Z,0.13
2019-01-27T14:49:03.279Z,0.21
2019-01-27T14:54:09.015Z,0.29
2019-01-27T14:59:14.911Z,0.24
2019-01-27T15:04:21.085Z,0.33
2019-01-27T15:09:27.000Z,0.22
2019-01-27T15:14:32.708Z,0.16
2019-01-27T15:19:38.438Z,0.16
2019-01-27T15:24:44.736Z,0.08
2019-01-27T15:29:50.580Z,0.11
2019-01-27T15:34:56.275Z,0.17
2019-01-27T15:40:01.999Z,-0.02
2019-01-27T15:45:18.876Z,-0.02
2019-01-27T15:50:31.850Z,0.15
2019-01-27T15:55:39.054Z,0.06
2019-01-27T16:00:45.255Z,0.06
2019-01-27T16:05:51.023Z,0.00
2019-01-27T16:10:56.779Z,0.18
2019-01-27T16:16:02.791Z,0.05
2019-01-27T16:21:08.751Z,0.02
2019-01-27T16:26:14.853Z,0.19
2019-01-27T16:31:22.483Z,0.21
2019-01-27T16:36:28.554Z,0.29
2019-01-27T16:41:34.428Z,0.27
2019-01-27T16:46:40.138Z,0.34
2019-01-27T16:51:49.065Z,0.28
2019-01-27T16:56:53.338Z,0.42
2019-01-27T17:01:59.251Z,0.43
2019-01-27T17:07:05.869Z,0.51
2019-01-27T17:12:11.836Z,0.40
2019-01-27T17:17:17.629Z,0.43
2019-01-27T17:22:23.566Z,0.50
2019-01-27T17:27:29.935Z,0.54
2019-01-27T17:32:35.827Z,0.64
2019-01-27T17:37:41.647Z,0.72
2019-01-27T17:42:47.343Z,0.70
2019-01-27T17:47:53.245Z,0.70
2019-01-27T17:52:58.938Z,0.76
2019-01-27T17:58:07.725Z,0.75
2019-01-27T18:03:15.358Z,0.78
2019-01-27T18:08:22.749Z,0.97
2019-01-27T18:13:29.022Z,0.77
2019-01-27T18:18:34.827Z,0.91
2019-01-27T18:23:40.675Z,0.97
2019-01-27T18:28:46.455Z,0.90
2019-01-27T18:33:52.207Z,1.02
2019-01-27T18:38:57.935Z,1.11
2019-01-27T18:44:03.676Z,1.07
2019-01-27T18:49:09.456Z,1.03
2019-01-27T18:54:30.078Z,1.18
2019-01-27T18:59:43.477Z,1.12
2019-01-27T19:04:57.036Z,1.24
2019-01-27T19:10:10.007Z,1.34
2019-01-27T19:15:37.004Z,1.24
2019-01-27T19:20:50.334Z,1.31
2019-01-27T19:26:00.695Z,1.36
2019-01-27T19:31:08.321Z,1.36
2019-01-27T19:36:30.272Z,1.54
2019-01-27T19:42:04.348Z,1.57
2019-01-27T19:47:11.952Z,1.56
2019-01-27T19:52:24.809Z,1.60
2019-01-27T19:57:41.449Z,1.66
2019-01-27T20:02:51.709Z,1.65
2019-01-27T20:07:59.380Z,1.73
2019-01-27T20:13:18.348Z,1.71
2019-01-27T20:18:26.114Z,1.70
2019-01-27T20:23:51.326Z,1.74
2019-01-27T20:29:10.956Z,1.85
2019-01-27T20:34:24.300Z,1.76
2019-01-27T20:39:34.556Z,1.81
2019-01-27T20:44:41.888Z,1.82
2019-01-27T20:49:51.828Z,1.82
2019-01-27T20:54:59.524Z,1.88
2019-01-27T21:00:18.867Z,1.82
2019-01-27T21:05:32.287Z,1.88
2019-01-27T21:10:45.713Z,1.84
2019-01-27T21:15:53.285Z,1.83
2019-01-27T21:20:59.202Z,1.83
2019-01-27T21:26:06.042Z,1.81
2019-01-27T21:31:12.167Z,1.81
2019-01-27T21:36:18.096Z,1.82
2019-01-27T21:41:24.141Z,1.81
2019-01-27T21:46:30.035Z,1.70
2019-01-27T21:51:36.047Z,1.72
2019-01-27T21:56:42.279Z,1.78
2019-01-27T22:01:48.499Z,1.70
2019-01-27T22:06:54.440Z,1.76
2019-01-27T22:12:00.283Z,1.69
2019-01-27T22:17:06.436Z,1.78
2019-01-27T22:22:12.683Z,1.79
2019-01-27T22:27:18.572Z,1.78
2019-01-27T22:32:24.305Z,1.82
2019-01-27T22:37:30.056Z,1.80
2019-01-27T22:42:35.894Z,1.76
2019-01-27T22:47:41.584Z,1.72
2019-01-27T22:52:47.341Z,1.74
2019-01-27T22:57:53.204Z,1.77
2019-01-27T23:02:58.925Z,1.79
2019-01-27T23:08:06.473Z,1.78
2019-01-27T23:13:12.325Z,1.75
2019-01-27T23:18:18.325Z,1.81
2019-01-27T23:23:24.227Z,1.84
2019-01-27T23:28:30.143Z,1.80
2019-01-27T23:33:35.808Z,1.82
2019-01-27T23:38:41.684Z,1.77
2019-01-27T23:43:47.436Z,1.85
2019-01-27T23:48:53.482Z,1.96
2019-01-27T23:53:59.220Z,1.94
2019-01-27T23:59:05.811Z,1.81
